Flight Track Log - Related Links

Times and Time Zones

All times are in EDT time to prevent confusion due to time zone crossing. See the ASA636 flight status page for this flight to view local times or setup timezone preferences in your user account.


Time Position Orientation Groundspeed Altitude Reporting Facility
EDT Latitude Longitude Course Direction KTS MPH feet Rate Location/Type
Thu 12:20:59 AM 47.4286 -122.3108 180° South 160 184 1,400  Level Seattle Center
Thu 12:21:48 AM 47.3886 -122.3108 180° South 174 200 3,300 2,564 Climbing Seattle Center
Thu 12:22:49 AM 47.3319 -122.3106 180° South 200 230 6,100 2,628 Climbing Seattle Center
Thu 12:23:49 AM 47.2639 -122.3097 180° South 252 290 8,600 2,380 Climbing Seattle Center
Thu 12:24:50 AM 47.1878 -122.2733 162° South 317 365 10,900 2,390 Climbing Seattle Center
Thu 12:25:52 AM 47.1000 -122.1822 145° Southeast 367 422 13,500 2,829 Climbing Seattle Center
Thu 12:26:53 AM 47.0000 -122.1394 164° South 377 434 16,700 2,754 Climbing Seattle Center
Thu 12:27:54 AM 46.9022 -122.1025 166° South 390 449 19,100 2,902 Climbing Seattle Center
Thu 12:28:55 AM 46.7933 -122.0600 165° South 407 468 22,600 3,197 Climbing Seattle Center
Thu 12:29:56 AM 46.6947 -121.9919 155° Southeast 406 467 25,600 2,361 Climbing Seattle Center
Thu 12:30:57 AM 46.6008 -121.8825 141° Southeast 436 502 27,400 1,475 Climbing Seattle Center
Thu 12:31:58 AM 46.4817 -121.7433 141° Southeast 466 536 28,600 1,328 Climbing Seattle Center
Thu 12:32:59 AM 46.3769 -121.6217 141° Southeast 486 559 30,100 1,918 Climbing Seattle Center
Thu 12:34:00 AM 46.2747 -121.5017 141° Southeast 487 560 32,500 2,164 Climbing Seattle Center
Thu 12:35:01 AM 46.1722 -121.3850 142° Southeast 475 547 34,500 1,770 Climbing Seattle Center
Thu 12:36:02 AM 46.0703 -121.2689 142° Southeast 470 541 36,100 1,328 Climbing Seattle Center
Thu 12:37:03 AM 45.9669 -121.1536 142° Southeast 470 541 37,200 1,426 Climbing Seattle Center
Thu 12:38:04 AM 45.8661 -121.0389 142° Southeast 466 536 39,000 885 Climbing Seattle Center
Thu 12:39:05 AM 45.7653 -120.9278 142° Southeast 459 528 39,000  Level Seattle Center
Thu 12:40:06 AM 45.6656 -120.8156 142° Southeast 456 525 39,000  Level Seattle Center
Thu 12:41:07 AM 45.5653 -120.7039 142° Southeast 457 526 39,000  Level Seattle Center
Thu 12:42:08 AM 45.4453 -120.5717 142° Southeast 456 525 39,000  Level Seattle Center
Thu 12:43:09 AM 45.3444 -120.4603 142° Southeast 458 527 39,000  Level Seattle Center
Thu 12:44:10 AM 45.2428 -120.3519 143° Southeast 459 528 39,000  Level Seattle Center
Thu 12:45:11 AM 45.1433 -120.2428 142° Southeast 456 525 39,000  Level Seattle Center
Thu 12:46:12 AM 45.0433 -120.1356 143° Southeast 455 524 39,000  Level Seattle Center
Thu 12:47:13 AM 44.9450 -120.0281 142° Southeast 459 528 39,000  Level Seattle Center
Thu 12:48:14 AM 44.8253 -119.9011 143° Southeast 466 536 39,000  Level Seattle Center
Thu 12:49:15 AM 44.7244 -119.7919 142° Southeast 463 533 39,000  Level Seattle Center
Thu 12:50:16 AM 44.6189 -119.6917 146° Southeast 460 529 39,000  Level Seattle Center
Thu 12:51:17 AM 44.5058 -119.6228 157° South 444 511 39,000  Level Seattle Center
Thu 12:52:18 AM 44.3922 -119.5514 156° South 448 516 39,000  Level Seattle Center
Thu 12:53:19 AM 44.2789 -119.4803 156° South 447 514 39,000  Level Seattle Center
Thu 12:54:20 AM 44.1633 -119.4097 156° South 452 520 39,000  Level Seattle Center
Thu 12:55:21 AM 44.0461 -119.3378 156° South 452 520 39,000  Level Seattle Center
Thu 12:56:22 AM 43.9339 -119.2694 156° South 451 519 39,000  Level Seattle Center
Thu 12:57:23 AM 43.8208 -119.2006 156° South 445 512 39,000  Level Seattle Center
Thu 12:58:24 AM 43.7075 -119.1308 156° South 447 514 39,000  Level Seattle Center
Thu 12:59:24 AM 43.5939 -119.0628 157° South 446 513 39,000  Level Seattle Center
Thu 01:00:25 AM 43.4808 -118.9947 156° South 445 512 39,000  Level Seattle Center
Thu 01:01:27 AM 43.3553 -118.9219 157° South 449 517 39,000  Level Seattle Center
Thu 01:02:11 AM 43.2761 -118.8733 156° South 446 513 39,000  Level Salt Lake Center
Thu 01:03:12 AM 43.1603 -118.8064 157° South 450 518 39,000  Level Salt Lake Center
Thu 01:04:14 AM 43.0464 -118.7358 156° South 450 518 39,000  Level Salt Lake Center
Thu 01:05:15 AM 42.9081 -118.6564 157° South 450 518 39,000  Level Salt Lake Center
Thu 01:06:16 AM 42.7922 -118.5864 156° South 454 522 39,000  Level Salt Lake Center
Thu 01:07:17 AM 42.6769 -118.5203 157° South 452 520 39,000  Level Salt Lake Center
Thu 01:08:19 AM 42.5603 -118.4528 157° South 456 525 39,000  Level Salt Lake Center
Thu 01:09:21 AM 42.4492 -118.3878 157° South 453 521 39,000  Level Salt Lake Center
Thu 01:10:22 AM 42.3186 -118.3139 157° South 456 525 39,000  Level Salt Lake Center
Thu 01:11:23 AM 42.2086 -118.2506 157° South 449 517 39,000  Level Salt Lake Center
Thu 01:12:24 AM 42.0803 -118.1747 156° South 449 517 39,000  Level Salt Lake Center
Thu 01:13:26 AM 41.9692 -118.1117 157° South 452 520 39,000  Level Salt Lake Center
Thu 01:14:27 AM 41.8569 -118.0472 157° South 456 525 39,000  Level Salt Lake Center
Thu 01:15:28 AM 41.7444 -117.9300 142° Southeast 465 535 39,000  Level Salt Lake Center
Thu 01:16:29 AM 41.6569 -117.8128 135° Southeast 464 534 39,000  Level Salt Lake Center
Thu 01:17:31 AM 41.5531 -117.6747 135° Southeast 470 541 39,000  Level Salt Lake Center
Thu 01:18:32 AM 41.4642 -117.5575 135° Southeast 470 541 39,000  Level Salt Lake Center
Thu 01:19:33 AM 41.3756 -117.4414 135° Southeast 466 536 39,000  Level Salt Lake Center
Thu 01:20:35 AM 41.2728 -117.3058 135° Southeast 467 537 39,000  Level Salt Lake Center
Thu 01:21:35 AM 41.1839 -117.1914 136° Southeast 464 534 39,000  Level Salt Lake Center
Thu 01:22:37 AM 41.0956 -117.0758 135° Southeast 464 534 39,000  Level Salt Lake Center
Thu 01:23:38 AM 40.9917 -116.9414 136° Southeast 466 536 39,000  Level Salt Lake Center
Thu 01:24:39 AM 40.9003 -116.8250 136° Southeast 472 543 39,000  Level Salt Lake Center
Thu 01:25:40 AM 40.8114 -116.7097 136° Southeast 467 537 39,000  Level Salt Lake Center
Thu 01:26:42 AM 40.7075 -116.5772 136° Southeast 464 534 39,000  Level Salt Lake Center
Thu 01:27:43 AM 40.6189 -116.4644 136° Southeast 459 528 39,000  Level Salt Lake Center
Thu 01:28:44 AM 40.5286 -116.3519 137° Southeast 461 531 39,000  Level Salt Lake Center
Thu 01:29:45 AM 40.4214 -116.2264 138° Southeast 460 529 39,000  Level Salt Lake Center
Thu 01:30:46 AM 40.3300 -116.1189 138° Southeast 460 529 39,000  Level Salt Lake Center
Thu 01:31:47 AM 40.2383 -116.0111 138° Southeast 459 528 39,000  Level Salt Lake Center
Thu 01:32:49 AM 40.1339 -115.8853 137° Southeast 457 526 39,000  Level Salt Lake Center
Thu 01:33:50 AM 40.0428 -115.7789 138° Southeast 458 527 39,000  Level Salt Lake Center
Thu 01:34:51 AM 39.9361 -115.6564 139° Southeast 458 527 39,000  Level Salt Lake Center
Thu 01:35:52 AM 39.8431 -115.5506 139° Southeast 460 529 39,000  Level Salt Lake Center
Thu 01:36:53 AM 39.7517 -115.4464 139° Southeast 457 526 39,000  Level Salt Lake Center
Thu 01:37:54 AM 39.6492 -115.3236 137° Southeast 450 518 39,000  Level Salt Lake Center
Thu 01:38:55 AM 39.5592 -115.2211 139° Southeast 449 517 39,000  Level Salt Lake Center
Thu 01:39:56 AM 39.4686 -115.1189 139° Southeast 451 519 39,000  Level Salt Lake Center
Thu 01:40:57 AM 39.3614 -115.0006 140° Southeast 453 521 39,000  Level Salt Lake Center
Thu 01:41:58 AM 39.2714 -114.8958 138° Southeast 453 521 39,000  Level Salt Lake Center
Thu 01:42:59 AM 39.1797 -114.7950 140° Southeast 452 520 39,000  Level Salt Lake Center
Thu 01:44:01 AM 39.0839 -114.6869 139° Southeast 452 520 39,000  Level Salt Lake Center
Thu 01:45:02 AM 38.9903 -114.5786 138° Southeast 453 521 39,000  Level Salt Lake Center
Thu 01:46:03 AM 38.8750 -114.4500 139° Southeast 458 527 39,000  Level Salt Lake Center
Thu 01:47:04 AM 38.7786 -114.3439 139° Southeast 458 527 39,000  Level Salt Lake Center
Thu 01:48:05 AM 38.6831 -114.2364 139° Southeast 458 527 39,000  Level Salt Lake Center
Thu 01:49:06 AM 38.5872 -114.1328 140° Southeast 454 522 39,000  Level Salt Lake Center
Thu 01:50:07 AM 38.4903 -114.0267 139° Southeast 458 527 39,000  Level Salt Lake Center
Thu 01:51:08 AM 38.3939 -113.9206 139° Southeast 459 528 39,000  Level Salt Lake Center
Thu 01:52:09 AM 38.2975 -113.8169 140° Southeast 457 526 39,000  Level Salt Lake Center
Thu 01:53:10 AM 38.2011 -113.7117 139° Southeast 456 525 39,000  Level Salt Lake Center
Thu 01:54:11 AM 38.1039 -113.6056 139° Southeast 461 531 39,000  Level Salt Lake Center
Thu 01:55:12 AM 38.0067 -113.5011 140° Southeast 460 529 39,000  Level Salt Lake Center
Thu 01:56:13 AM 37.9075 -113.3969 140° Southeast 463 533 39,000  Level Salt Lake Center
Thu 01:57:14 AM 37.7928 -113.3278 155° Southeast 458 527 39,000  Level Salt Lake Center
Thu 01:58:15 AM 37.6528 -113.2494 156° South 463 533 39,000  Level Salt Lake Center
Thu 01:59:16 AM 37.5369 -113.1869 157° South 460 529 39,000  Level Salt Lake Center
Thu 02:00:13 AM 37.4217 -113.1222 156° South 459 528 39,000  Level Los Angeles Center
Thu 02:01:18 AM 37.3067 -113.0586 156° South 458 527 39,000  Level Salt Lake Center
Thu 02:02:19 AM 37.1900 -112.9950 157° South 459 528 39,000  Level Salt Lake Center
Thu 02:03:19 AM 37.0758 -112.9311 156° South 457 526 39,000  Level Salt Lake Center
Thu 02:04:20 AM 36.9600 -112.8686 157° South 455 524 39,000  Level Salt Lake Center
Thu 02:05:21 AM 36.8450 -112.8056 156° South 453 521 39,000  Level Salt Lake Center
Thu 02:06:20 AM 36.7289 -112.7431 157° South 452 520 39,000  Level Los Angeles Center
Thu 02:07:21 AM 36.6136 -112.6811 157° South 451 519 39,000  Level Los Angeles Center
Thu 02:08:22 AM 36.4756 -112.6067 157° South 451 519 39,000  Level Los Angeles Center
Thu 02:09:24 AM 36.3594 -112.5447 157° South 454 522 39,000 -195 Level Los Angeles Center
Thu 02:10:25 AM 36.2439 -112.4831 157° South 453 521 38,600 -689 Descending Los Angeles Center
Thu 02:11:26 AM 36.1286 -112.4222 157° South 452 520 37,600 -934 Descending Los Angeles Center
Thu 02:12:27 AM 36.0056 -112.4022 173° South 451 519 36,700 -927 Descending Los Angeles Center
Thu 02:13:29 AM 35.8731 -112.4114 183° South 460 529 35,700 -976 Descending Los Angeles Center
Thu 02:14:30 AM 35.7461 -112.4142 181° South 458 527 34,700 -934 Descending Los Angeles Center
Thu 02:15:31 AM 35.6175 -112.3936 173° South 464 534 33,800 -934 Descending Los Angeles Center
Thu 02:16:32 AM 35.4914 -112.3719 172° South 458 527 32,800 -1,017 Descending Los Angeles Center
Thu 02:17:29 AM 35.3628 -112.3500 172° South 462 532 31,800 -966 Descending Albuquerque Center
Thu 02:18:30 AM 35.2339 -112.3283 172° South 464 534 30,900 -942 Descending Albuquerque Center
Thu 02:19:30 AM 35.1061 -112.3075 172° South 463 533 29,900 -942 Descending Albuquerque Center
Thu 02:20:31 AM 34.9792 -112.2867 172° South 462 532 29,000 -934 Descending Albuquerque Center
Thu 02:21:32 AM 34.8503 -112.2644 172° South 465 535 28,000 -1,041 Descending Albuquerque Center
Thu 02:22:32 AM 34.7094 -112.2403 172° South 470 541 26,900 -1,240 Descending Albuquerque Center
Thu 02:23:33 AM 34.5833 -112.2200 172° South 462 532 25,500 -2,083 Descending Albuquerque Center
Thu 02:24:33 AM 34.4656 -112.2003 172° South 439 505 22,700 -2,727 Descending Albuquerque Center
Thu 02:25:34 AM 34.3506 -112.1800 172° South 423 487 20,000 -2,678 Descending Albuquerque Center
Thu 02:26:34 AM 34.2386 -112.1619 172° South 412 474 17,300 -1,835 Descending Albuquerque Center
Thu 02:27:35 AM 34.1375 -112.1450 172° South 370 426 16,300 -1,041 Descending Albuquerque Center
Thu 02:28:35 AM 34.0458 -112.1261 170° South 338 389 15,200 -1,339 Descending Albuquerque Center
Thu 02:29:36 AM 33.9600 -112.1033 168° South 322 371 13,600 -1,525 Descending Albuquerque Center
Thu 02:30:37 AM 33.8781 -112.0825 168° South 306 352 12,100 -1,488 Descending Albuquerque Center
Thu 02:31:37 AM 33.7986 -112.0628 168° South 297 342 10,600 -1,041 Descending Albuquerque Center
Thu 02:32:38 AM 33.7189 -112.0461 170° South 293 337 10,000 -595 Descending Albuquerque Center
Thu 02:33:38 AM 33.6400 -112.0322 172° South 289 333 9,400 -660 Descending Albuquerque Center
Thu 02:34:18 AM 33.5833 -112.0167 167° South 253 291 8,900 -1,320 Descending Phoenix TRACON
Thu 02:35:18 AM 33.5333 -111.9667 140° Southeast 251 289 7,200 -1,316 Descending Phoenix TRACON
Thu 02:36:12 AM 33.5333 -111.9000 90° East 234 269 6,400 -893 Descending Phoenix TRACON
Thu 02:37:19 AM 33.5000 -111.8333 121° Southeast 199 229 5,400 -992 Descending Phoenix TRACON
Thu 02:38:13 AM 33.4667 -111.8333 180° South 182 209 4,400 -1,200 Descending Phoenix TRACON
Thu 02:39:19 AM 33.4333 -111.8833 231° Southwest 168 193 3,000 -1,050 Descending Phoenix TRACON
Thu 02:40:13 AM 33.4333 -111.9167 270° West 132 152 2,300 -684 Descending Phoenix TRACON
Thu 02:41:13 AM 33.4333 -111.9667 270° West 118 136 1,700 -600 Descending Phoenix TRACON

Login

Don't have an account? Register now (free) for customized features, flight alerts, and more!